createdAt,value
2018-06-08T00:01:06.000Z,100176
2018-06-08T00:03:06.000Z,100182
2018-06-08T00:04:06.000Z,100180
2018-06-08T00:06:06.000Z,100176
2018-06-08T00:08:06.000Z,100173
2018-06-08T00:10:06.000Z,100166
2018-06-08T00:12:06.000Z,100169
2018-06-08T00:13:06.000Z,100167
2018-06-08T00:15:05.000Z,100165
2018-06-08T00:16:50.000Z,100170
2018-06-08T00:18:05.000Z,100168
2018-06-08T00:20:05.000Z,100159
2018-06-08T00:21:05.000Z,100169
2018-06-08T00:22:05.000Z,100167
2018-06-08T00:24:05.000Z,100159
2018-06-08T00:25:05.000Z,100166
2018-06-08T00:27:05.000Z,100164
2018-06-08T00:28:35.000Z,100165
2018-06-08T00:30:05.000Z,100159
2018-06-08T00:31:50.000Z,100160
2018-06-08T00:33:05.000Z,100156
2018-06-08T00:35:05.000Z,100164
2018-06-08T00:37:05.000Z,100162
2018-06-08T00:38:05.000Z,100160
2018-06-08T00:40:05.000Z,100156
2018-06-08T00:42:05.000Z,100160
2018-06-08T00:44:05.000Z,100161
2018-06-08T00:45:50.000Z,100158
2018-06-08T00:47:05.000Z,100156
2018-06-08T00:49:05.000Z,100152
2018-06-08T00:51:05.000Z,100150
2018-06-08T00:52:05.000Z,100149
2018-06-08T00:54:05.000Z,100149
2018-06-08T00:55:05.000Z,100154
2018-06-08T00:57:05.000Z,100150
2018-06-08T00:58:05.000Z,100153
2018-06-08T01:35:54.000Z,100151
2018-06-08T01:37:40.000Z,100153
2018-06-08T01:39:40.000Z,100149
2018-06-08T01:41:40.000Z,100146
2018-06-08T01:42:40.000Z,100146
2018-06-08T01:44:40.000Z,100143
2018-06-08T01:46:40.000Z,100138
2018-06-08T01:48:40.000Z,100149
2018-06-08T01:50:40.000Z,100143
2018-06-08T01:51:40.000Z,100145
2018-06-08T01:53:40.000Z,100145
2018-06-08T01:54:40.000Z,100150
2018-06-08T01:56:40.000Z,100140
2018-06-08T01:58:40.000Z,100143
2018-06-08T02:00:40.000Z,100146
2018-06-08T02:02:40.000Z,100148
2018-06-08T02:04:40.000Z,100147
2018-06-08T02:05:40.000Z,100143
2018-06-08T02:07:40.000Z,100141
2018-06-08T02:08:40.000Z,100144
2018-06-08T02:09:40.000Z,100143
2018-06-08T02:11:40.000Z,100141
2018-06-08T02:13:25.000Z,100145
2018-06-08T02:14:40.000Z,100139
2018-06-08T02:16:40.000Z,100138
2018-06-08T02:17:40.000Z,100139
2018-06-08T02:19:40.000Z,100139
2018-06-08T02:20:40.000Z,100141
2018-06-08T02:21:40.000Z,100144
2018-06-08T02:23:40.000Z,100145
2018-06-08T02:24:40.000Z,100143
2018-06-08T02:26:40.000Z,100148
2018-06-08T02:28:40.000Z,100139
2018-06-08T02:30:40.000Z,100137
2018-06-08T02:32:40.000Z,100138
2018-06-08T02:34:09.000Z,100137
2018-06-08T02:35:40.000Z,100135
2018-06-08T02:37:40.000Z,100133
2018-06-08T02:39:40.000Z,100136
2018-06-08T02:40:40.000Z,100135
2018-06-08T02:41:40.000Z,100134
2018-06-08T02:43:25.000Z,100138
2018-06-08T02:44:40.000Z,100139
2018-06-08T02:46:25.000Z,100138
2018-06-08T02:47:40.000Z,100132
2018-06-08T02:49:40.000Z,100140
2018-06-08T02:51:40.000Z,100138
2018-06-08T02:52:40.000Z,100140
2018-06-08T02:54:40.000Z,100138
2018-06-08T02:56:40.000Z,100135
2018-06-08T02:58:40.000Z,100141
2018-06-08T03:00:40.000Z,100139
2018-06-08T03:02:40.000Z,100135
2018-06-08T03:04:40.000Z,100137
2018-06-08T03:06:40.000Z,100130
2018-06-08T03:08:40.000Z,100124
2018-06-08T03:09:40.000Z,100129
2018-06-08T03:11:25.000Z,100125
2018-06-08T03:12:40.000Z,100122
2018-06-08T03:14:40.000Z,100126
2018-06-08T03:16:40.000Z,100124
2018-06-08T03:18:40.000Z,100120
2018-06-08T03:20:40.000Z,100118
2018-06-08T03:22:40.000Z,100120
2018-06-08T03:24:41.000Z,100119
2018-06-08T03:26:41.000Z,100122
2018-06-08T03:27:41.000Z,100119
2018-06-08T03:29:25.000Z,100116
2018-06-08T03:30:41.000Z,100120
2018-06-08T03:32:41.000Z,100115
2018-06-08T03:33:41.000Z,100120
2018-06-08T03:35:25.000Z,100122
2018-06-08T03:36:41.000Z,100126
2018-06-08T03:38:41.000Z,100124
2018-06-08T03:40:41.000Z,100124
2018-06-08T03:41:41.000Z,100128
2018-06-08T03:43:41.000Z,100126
2018-06-08T03:44:41.000Z,100132
2018-06-08T03:46:41.000Z,100131
2018-06-08T03:48:25.000Z,100129
2018-06-08T03:49:41.000Z,100130
2018-06-08T03:51:25.000Z,100130
2018-06-08T03:52:41.000Z,100129
2018-06-08T03:55:41.000Z,100127
2018-06-08T03:57:41.000Z,100128
2018-06-08T03:58:41.000Z,100127
2018-06-08T04:00:41.000Z,100132
2018-06-08T04:02:41.000Z,100127
2018-06-08T04:04:25.000Z,100128
2018-06-08T04:05:41.000Z,100126
2018-06-08T04:06:41.000Z,100133
2018-06-08T04:08:41.000Z,100127
2018-06-08T04:10:41.000Z,100129
2018-06-08T04:11:41.000Z,100129
2018-06-08T04:13:41.000Z,100134
2018-06-08T04:15:41.000Z,100141
2018-06-08T04:17:41.000Z,100144
2018-06-08T04:18:41.000Z,100146
2018-06-08T04:20:41.000Z,100138
2018-06-08T04:21:41.000Z,100140
2018-06-08T04:23:41.000Z,100137
2018-06-08T04:25:41.000Z,100145
2018-06-08T04:27:40.000Z,100142
2018-06-08T04:29:25.000Z,100141
2018-06-08T04:30:25.000Z,100147
2018-06-08T04:31:40.000Z,100137
2018-06-08T04:32:40.000Z,100134
2018-06-08T04:34:40.000Z,100135
2018-06-08T04:36:40.000Z,100134
2018-06-08T04:38:40.000Z,100136
2018-06-08T04:40:40.000Z,100143
2018-06-08T04:42:40.000Z,100135
2018-06-08T04:43:40.000Z,100145
2018-06-08T04:44:40.000Z,100139
2018-06-08T04:46:40.000Z,100137
2018-06-08T04:48:40.000Z,100135
2018-06-08T04:50:40.000Z,100132
2018-06-08T04:52:40.000Z,100137
2018-06-08T04:54:40.000Z,100134
2018-06-08T04:55:40.000Z,100138
2018-06-08T04:57:40.000Z,100139
2018-06-08T04:59:25.000Z,100140
2018-06-08T05:00:25.000Z,100140
2018-06-08T05:01:40.000Z,100140
2018-06-08T05:03:40.000Z,100144
2018-06-08T05:04:40.000Z,100141
2018-06-08T05:06:40.000Z,100141
2018-06-08T05:08:40.000Z,100142
2018-06-08T05:10:40.000Z,100148
2018-06-08T05:12:40.000Z,100151
2018-06-08T05:14:40.000Z,100151
2018-06-08T05:16:25.000Z,100153
2018-06-08T05:17:40.000Z,100150
2018-06-08T05:18:40.000Z,100155
2018-06-08T05:20:40.000Z,100152
2018-06-08T05:22:40.000Z,100150
2018-06-08T05:23:40.000Z,100149
2018-06-08T05:24:40.000Z,100149
2018-06-08T05:26:40.000Z,100148
2018-06-08T05:28:40.000Z,100147
2018-06-08T05:30:40.000Z,100143
2018-06-08T05:31:40.000Z,100145
2018-06-08T05:33:40.000Z,100141
2018-06-08T05:34:40.000Z,100148
2018-06-08T05:36:40.000Z,100150
2018-06-08T05:38:40.000Z,100151
2018-06-08T05:39:40.000Z,100152
2018-06-08T05:41:40.000Z,100151
2018-06-08T05:42:40.000Z,100153
2018-06-08T05:44:25.000Z,100158
2018-06-08T05:45:40.000Z,100158
2018-06-08T05:46:40.000Z,100153
2018-06-08T05:48:40.000Z,100152
2018-06-08T05:49:40.000Z,100153
2018-06-08T05:51:10.000Z,100149
2018-06-08T05:52:40.000Z,100153
2018-06-08T05:54:25.000Z,100158
2018-06-08T05:55:40.000Z,100157
2018-06-08T05:57:40.000Z,100157
2018-06-08T05:58:40.000Z,100155
2018-06-08T06:00:40.000Z,100153
2018-06-08T06:02:25.000Z,100154
2018-06-08T06:03:25.000Z,100135
2018-06-08T06:04:40.000Z,100161
2018-06-08T06:06:40.000Z,100165
2018-06-08T06:08:40.000Z,100165
2018-06-08T06:10:40.000Z,100169
2018-06-08T06:12:40.000Z,100172
2018-06-08T06:14:40.000Z,100167
2018-06-08T06:15:40.000Z,100170
2018-06-08T06:16:40.000Z,100171
2018-06-08T06:18:40.000Z,100174
2018-06-08T06:20:40.000Z,100173
2018-06-08T06:21:40.000Z,100174
2018-06-08T06:22:40.000Z,100169
2018-06-08T06:24:40.000Z,100172
2018-06-08T06:26:40.000Z,100171
2018-06-08T06:28:40.000Z,100176
2018-06-08T06:29:40.000Z,100177
2018-06-08T06:31:40.000Z,100175
2018-06-08T06:32:40.000Z,100178
2018-06-08T06:33:40.000Z,100176
2018-06-08T06:35:25.000Z,100185
2018-06-08T06:36:40.000Z,100186
2018-06-08T06:37:40.000Z,100184
2018-06-08T06:39:40.000Z,100187
2018-06-08T06:40:40.000Z,100180
2018-06-08T06:42:40.000Z,100180
2018-06-08T06:43:40.000Z,100182
2018-06-08T06:45:40.000Z,100179
2018-06-08T06:47:25.000Z,100178
2018-06-08T06:48:40.000Z,100177
2018-06-08T06:49:40.000Z,100178
2018-06-08T06:51:40.000Z,100180
2018-06-08T06:53:25.000Z,100184
2018-06-08T06:54:40.000Z,100178
2018-06-08T06:56:40.000Z,100179
2018-06-08T06:58:40.000Z,100179
2018-06-08T06:59:40.000Z,100185
2018-06-08T07:01:40.000Z,100188
2018-06-08T07:03:40.000Z,100188
2018-06-08T07:05:40.000Z,100191
2018-06-08T07:07:40.000Z,100189
2018-06-08T07:08:40.000Z,100189
2018-06-08T07:10:40.000Z,100188
2018-06-08T07:12:40.000Z,100196
2018-06-08T07:14:40.000Z,100190
2018-06-08T07:16:40.000Z,100186
2018-06-08T07:18:40.000Z,100188
2018-06-08T07:20:40.000Z,100183
2018-06-08T07:22:40.000Z,100182
2018-06-08T07:23:40.000Z,100185
2018-06-08T07:25:40.000Z,100185
2018-06-08T07:27:40.000Z,100180
2018-06-08T07:29:40.000Z,100180
2018-06-08T07:30:40.000Z,100175
2018-06-08T07:31:40.000Z,100170
2018-06-08T07:33:40.000Z,100173
2018-06-08T07:35:40.000Z,100180
2018-06-08T07:36:40.000Z,100172
2018-06-08T07:38:24.000Z,100178
2018-06-08T07:39:40.000Z,100172
2018-06-08T07:41:40.000Z,100174
2018-06-08T07:43:25.000Z,100130
2018-06-08T07:45:40.000Z,100181
2018-06-08T07:47:40.000Z,100186
2018-06-08T07:48:40.000Z,100178
2018-06-08T07:50:40.000Z,100192
2018-06-08T07:52:40.000Z,100196
2018-06-08T07:54:09.000Z,100194
2018-06-08T07:55:40.000Z,100190
2018-06-08T07:57:24.000Z,100190
2018-06-08T07:58:40.000Z,100202
2018-06-08T07:59:40.000Z,100208
2018-06-08T08:01:25.000Z,100168
2018-06-08T08:02:40.000Z,100218
2018-06-08T08:04:24.000Z,100220
2018-06-08T08:05:40.000Z,100216
2018-06-08T08:07:40.000Z,100218
2018-06-08T08:08:40.000Z,100209
2018-06-08T08:09:40.000Z,100196
2018-06-08T08:11:40.000Z,100196
2018-06-08T08:13:40.000Z,100188
2018-06-08T08:15:40.000Z,100182
2018-06-08T08:17:40.000Z,100196
2018-06-08T08:18:40.000Z,100207
2018-06-08T08:20:40.000Z,100220
2018-06-08T08:22:40.000Z,100216
2018-06-08T08:23:40.000Z,100218
2018-06-08T08:24:40.000Z,100216
2018-06-08T08:26:40.000Z,100203
2018-06-08T08:28:40.000Z,100221
2018-06-08T08:29:40.000Z,100222
2018-06-08T08:31:25.000Z,100242
2018-06-08T08:32:40.000Z,100239
2018-06-08T08:33:40.000Z,100236
2018-06-08T08:35:40.000Z,100227
2018-06-08T08:36:40.000Z,100232
2018-06-08T08:38:40.000Z,100230
2018-06-08T08:40:40.000Z,100229
2018-06-08T08:42:40.000Z,100231
2018-06-08T08:44:40.000Z,100229
2018-06-08T08:46:40.000Z,100238
2018-06-08T08:48:40.000Z,100249
2018-06-08T08:49:40.000Z,100243
2018-06-08T08:51:40.000Z,100251
2018-06-08T08:53:40.000Z,100242
2018-06-08T08:55:40.000Z,100241
2018-06-08T08:57:40.000Z,100249
2018-06-08T08:59:40.000Z,100252
2018-06-08T09:01:40.000Z,100258
2018-06-08T09:03:40.000Z,100262
2018-06-08T09:05:40.000Z,100267
2018-06-08T09:07:40.000Z,100266
2018-06-08T09:09:09.000Z,100269
2018-06-08T09:10:40.000Z,100263
2018-06-08T09:12:40.000Z,100257
2018-06-08T09:13:40.000Z,100254
2018-06-08T09:15:40.000Z,100245
2018-06-08T09:17:40.000Z,100246
2018-06-08T09:18:40.000Z,100241
2018-06-08T09:20:40.000Z,100252
2018-06-08T09:22:40.000Z,100250
2018-06-08T09:24:40.000Z,100250
2018-06-08T09:26:40.000Z,100254
2018-06-08T09:27:40.000Z,100249
2018-06-08T09:29:40.000Z,100250
2018-06-08T09:31:40.000Z,100253
2018-06-08T09:33:40.000Z,100248
2018-06-08T09:35:40.000Z,100245
2018-06-08T09:37:40.000Z,100246
2018-06-08T09:38:40.000Z,100248
2018-06-08T09:40:09.000Z,100244
2018-06-08T09:41:40.000Z,100248
2018-06-08T09:43:40.000Z,100251
2018-06-08T09:44:40.000Z,100254
2018-06-08T09:45:40.000Z,100255
2018-06-08T09:47:40.000Z,100258
2018-06-08T09:49:40.000Z,100266
2018-06-08T09:51:40.000Z,100271
2018-06-08T09:52:40.000Z,100269
2018-06-08T09:54:25.000Z,100275
2018-06-08T09:55:40.000Z,100272
2018-06-08T09:57:40.000Z,100274
2018-06-08T09:59:40.000Z,100283
2018-06-08T10:00:40.000Z,100291
2018-06-08T10:02:40.000Z,100292
2018-06-08T10:04:25.000Z,100291
2018-06-08T10:05:40.000Z,100301
2018-06-08T10:07:40.000Z,100295
2018-06-08T10:09:40.000Z,100298
2018-06-08T10:11:40.000Z,100292
2018-06-08T10:12:40.000Z,100290
2018-06-08T10:14:40.000Z,100282
2018-06-08T10:16:40.000Z,100287
2018-06-08T10:18:40.000Z,100282
2018-06-08T10:19:40.000Z,100277
2018-06-08T10:21:40.000Z,100275
2018-06-08T10:23:40.000Z,100274
2018-06-08T10:24:40.000Z,100280
2018-06-08T10:26:40.000Z,100280
2018-06-08T10:28:40.000Z,100274
2018-06-08T10:30:40.000Z,100268
2018-06-08T10:32:40.000Z,100271
2018-06-08T10:34:40.000Z,100268
2018-06-08T10:36:40.000Z,100276
2018-06-08T10:38:40.000Z,100274
2018-06-08T10:39:40.000Z,100273
2018-06-08T10:41:40.000Z,100272
2018-06-08T10:43:40.000Z,100271
2018-06-08T10:45:40.000Z,100277
2018-06-08T10:47:10.000Z,100276
2018-06-08T10:48:40.000Z,100272
2018-06-08T10:50:40.000Z,100267
2018-06-08T10:52:40.000Z,100267
2018-06-08T10:53:40.000Z,100275
2018-06-08T10:55:40.000Z,100272
2018-06-08T10:56:40.000Z,100269
2018-06-08T10:58:40.000Z,100273
2018-06-08T11:00:40.000Z,100270
2018-06-08T11:02:40.000Z,100268
2018-06-08T11:04:40.000Z,100267
2018-06-08T11:06:40.000Z,100267
2018-06-08T11:08:40.000Z,100264
2018-06-08T11:09:40.000Z,100269
2018-06-08T11:11:40.000Z,100270
2018-06-08T11:13:40.000Z,100267
2018-06-08T11:15:40.000Z,100265
2018-06-08T11:17:25.000Z,100260
2018-06-08T11:18:40.000Z,100255
2018-06-08T11:20:40.000Z,100261
2018-06-08T11:22:40.000Z,100263
2018-06-08T11:24:25.000Z,100256
2018-06-08T11:25:40.000Z,100259
2018-06-08T11:27:40.000Z,100253
2018-06-08T11:29:40.000Z,100249
2018-06-08T11:31:40.000Z,100249
2018-06-08T11:33:40.000Z,100248
2018-06-08T11:35:40.000Z,100240
2018-06-08T11:37:40.000Z,100236
2018-06-08T11:39:25.000Z,100240
2018-06-08T11:40:40.000Z,100233
2018-06-08T11:42:40.000Z,100233
2018-06-08T11:44:40.000Z,100233
2018-06-08T11:46:40.000Z,100232
2018-06-08T11:48:40.000Z,100234
2018-06-08T11:50:40.000Z,100228
2018-06-08T11:52:40.000Z,100225
2018-06-08T11:54:25.000Z,100228
2018-06-08T11:55:40.000Z,100223
2018-06-08T11:57:09.000Z,100222
2018-06-08T11:58:40.000Z,100221
2018-06-08T12:00:40.000Z,100220
2018-06-08T12:02:40.000Z,100217
2018-06-08T12:03:40.000Z,100216
2018-06-08T12:05:40.000Z,100216
2018-06-08T12:06:40.000Z,100205
2018-06-08T12:08:40.000Z,100211
2018-06-08T12:09:40.000Z,100208
2018-06-08T12:11:40.000Z,100205
2018-06-08T12:13:25.000Z,100201
2018-06-08T12:14:40.000Z,100199
2018-06-08T12:15:40.000Z,100199
2018-06-08T12:17:40.000Z,100193
2018-06-08T12:18:40.000Z,100188
2018-06-08T12:20:40.000Z,100184
2018-06-08T12:21:40.000Z,100189
2018-06-08T12:22:40.000Z,100187
2018-06-08T12:24:09.000Z,100181
2018-06-08T12:25:40.000Z,100184
2018-06-08T12:27:40.000Z,100178
2018-06-08T12:29:40.000Z,100176
2018-06-08T12:31:40.000Z,100179
2018-06-08T12:33:09.000Z,100181
2018-06-08T12:34:40.000Z,100174
2018-06-08T12:36:25.000Z,100183
2018-06-08T12:37:40.000Z,100176
2018-06-08T12:39:40.000Z,100177
2018-06-08T12:40:40.000Z,100170
2018-06-08T12:42:40.000Z,100172
2018-06-08T12:43:40.000Z,100170
2018-06-08T12:45:40.000Z,100164
2018-06-08T12:47:40.000Z,100172
2018-06-08T12:49:25.000Z,100169
2018-06-08T12:50:40.000Z,100172
2018-06-08T12:51:40.000Z,100171
2018-06-08T12:53:40.000Z,100173
2018-06-08T12:55:40.000Z,100178
2018-06-08T12:57:40.000Z,100179
2018-06-08T12:59:40.000Z,100185
2018-06-08T13:01:40.000Z,100196
2018-06-08T13:02:40.000Z,100198
2018-06-08T13:04:40.000Z,100198
2018-06-08T13:05:40.000Z,100202
2018-06-08T13:07:40.000Z,100194
2018-06-08T13:09:40.000Z,100194
2018-06-08T13:10:40.000Z,100194
2018-06-08T13:12:40.000Z,100197
2018-06-08T13:13:40.000Z,100188
2018-06-08T13:14:40.000Z,100184
2018-06-08T13:16:40.000Z,100185
2018-06-08T13:18:40.000Z,100187
2018-06-08T13:19:40.000Z,100188
2018-06-08T13:21:40.000Z,100189
2018-06-08T13:23:25.000Z,100180
2018-06-08T13:24:40.000Z,100181
2018-06-08T13:26:25.000Z,100175
2018-06-08T13:27:40.000Z,100187
2018-06-08T13:28:40.000Z,100179
2018-06-08T13:29:40.000Z,100175
2018-06-08T13:30:40.000Z,100181
2018-06-08T13:32:40.000Z,100174
2018-06-08T13:33:40.000Z,100173
2018-06-08T13:35:40.000Z,100177
2018-06-08T13:37:25.000Z,100107
2018-06-08T13:39:40.000Z,100162
2018-06-08T13:41:40.000Z,100159
2018-06-08T13:43:40.000Z,100151
2018-06-08T13:45:40.000Z,100144
2018-06-08T13:47:40.000Z,100140
2018-06-08T13:49:40.000Z,100141
2018-06-08T13:51:40.000Z,100140
2018-06-08T13:52:40.000Z,100143
2018-06-08T13:54:40.000Z,100138
2018-06-08T13:56:40.000Z,100148
2018-06-08T13:58:40.000Z,100155
2018-06-08T14:00:40.000Z,100155
2018-06-08T14:01:40.000Z,100158
2018-06-08T14:03:40.000Z,100153
2018-06-08T14:05:40.000Z,100156
2018-06-08T14:07:40.000Z,100160
2018-06-08T14:08:40.000Z,100166
2018-06-08T14:10:40.000Z,100158
2018-06-08T14:12:25.000Z,100165
2018-06-08T14:13:40.000Z,100160
2018-06-08T14:14:40.000Z,100157
2018-06-08T14:16:40.000Z,100157
2018-06-08T14:18:25.000Z,100152
2018-06-08T14:19:40.000Z,100158
2018-06-08T14:21:40.000Z,100148
2018-06-08T14:23:40.000Z,100146
2018-06-08T14:24:40.000Z,100139
2018-06-08T14:26:40.000Z,100130
2018-06-08T14:27:40.000Z,100135
2018-06-08T14:28:40.000Z,100130
2018-06-08T14:30:40.000Z,100126
2018-06-08T14:32:40.000Z,100124
2018-06-08T14:34:40.000Z,100120
2018-06-08T14:36:40.000Z,100119
2018-06-08T14:38:40.000Z,100120
2018-06-08T14:39:40.000Z,100124
2018-06-08T14:41:40.000Z,100120
2018-06-08T14:43:40.000Z,100122
2018-06-08T14:45:25.000Z,100124
2018-06-08T14:46:40.000Z,100125
2018-06-08T14:48:40.000Z,100127
2018-06-08T14:50:40.000Z,100129
2018-06-08T14:52:40.000Z,100129
2018-06-08T14:53:40.000Z,100133
2018-06-08T14:54:40.000Z,100131
2018-06-08T14:56:25.000Z,100126
2018-06-08T14:57:40.000Z,100124
2018-06-08T14:58:40.000Z,100124
2018-06-08T15:00:10.000Z,100123
2018-06-08T15:01:40.000Z,100122
2018-06-08T15:02:40.000Z,100119
2018-06-08T15:04:40.000Z,100128
2018-06-08T15:06:40.000Z,100122
2018-06-08T15:07:40.000Z,100118
2018-06-08T15:09:40.000Z,100115
2018-06-08T15:11:40.000Z,100113
2018-06-08T15:13:25.000Z,100112
2018-06-08T15:14:40.000Z,100115
2018-06-08T15:16:40.000Z,100111
2018-06-08T15:18:25.000Z,100121
2018-06-08T15:19:40.000Z,100125
2018-06-08T15:21:40.000Z,100113
2018-06-08T15:23:40.000Z,100115
2018-06-08T15:25:40.000Z,100118
2018-06-08T15:27:25.000Z,100115
2018-06-08T15:28:40.000Z,100108
2018-06-08T15:30:40.000Z,100105
2018-06-08T15:32:40.000Z,100098
2018-06-08T15:34:40.000Z,100091
2018-06-08T15:36:40.000Z,100095
2018-06-08T15:37:40.000Z,100097
2018-06-08T15:39:40.000Z,100097
2018-06-08T15:41:40.000Z,100095
2018-06-08T15:42:40.000Z,100089
2018-06-08T15:44:40.000Z,100091
2018-06-08T15:46:40.000Z,100088
2018-06-08T15:47:40.000Z,100096
2018-06-08T15:49:40.000Z,100094
2018-06-08T15:51:40.000Z,100093
2018-06-08T15:53:40.000Z,100095
2018-06-08T15:55:40.000Z,100097
2018-06-08T15:57:40.000Z,100091
2018-06-08T15:58:40.000Z,100093
2018-06-08T16:00:25.000Z,100096
2018-06-08T16:01:40.000Z,100091
2018-06-08T16:02:40.000Z,100090
2018-06-08T16:04:40.000Z,100084
2018-06-08T16:06:25.000Z,100084
2018-06-08T16:07:40.000Z,100081
2018-06-08T16:09:25.000Z,100079
2018-06-08T16:10:40.000Z,100075
2018-06-08T16:12:25.000Z,100074
2018-06-08T16:13:40.000Z,100080
2018-06-08T16:14:40.000Z,100080
2018-06-08T16:16:40.000Z,100078
2018-06-08T16:18:40.000Z,100078
2018-06-08T16:20:25.000Z,100080
2018-06-08T16:21:40.000Z,100085
2018-06-08T16:22:40.000Z,100082
2018-06-08T16:24:40.000Z,100081
2018-06-08T16:26:40.000Z,100077
2018-06-08T16:28:40.000Z,100079
2018-06-08T16:30:40.000Z,100083
2018-06-08T16:31:40.000Z,100079
2018-06-08T16:33:40.000Z,100077
2018-06-08T16:35:10.000Z,100072
2018-06-08T16:36:40.000Z,100073
2018-06-08T16:37:40.000Z,100072
2018-06-08T16:39:25.000Z,100076
2018-06-08T16:40:40.000Z,100070
2018-06-08T16:42:40.000Z,100066
2018-06-08T16:44:25.000Z,100065
2018-06-08T16:45:40.000Z,100068
2018-06-08T16:47:40.000Z,100067
2018-06-08T16:48:40.000Z,100067
2018-06-08T16:50:40.000Z,100067
2018-06-08T16:51:40.000Z,100071
2018-06-08T16:53:40.000Z,100061
2018-06-08T16:54:40.000Z,100065
2018-06-08T16:56:40.000Z,100070
2018-06-08T16:58:40.000Z,100069
2018-06-08T17:00:10.000Z,100067
2018-06-08T17:01:40.000Z,100066
2018-06-08T17:03:40.000Z,100060
2018-06-08T17:05:40.000Z,100061
2018-06-08T17:07:40.000Z,100066
2018-06-08T17:09:25.000Z,100065
2018-06-08T17:10:40.000Z,100066
2018-06-08T17:12:25.000Z,100068
2018-06-08T17:13:25.000Z,100072
2018-06-08T17:14:40.000Z,100068
2018-06-08T17:15:40.000Z,100071
2018-06-08T17:17:40.000Z,100048
2018-06-08T17:18:40.000Z,100065
2018-06-08T17:20:25.000Z,100062
2018-06-08T17:21:40.000Z,100065
2018-06-08T17:23:40.000Z,100064
2018-06-08T17:25:40.000Z,100072
2018-06-08T17:26:40.000Z,100077
2018-06-08T17:28:40.000Z,100085
2018-06-08T17:30:40.000Z,100083
2018-06-08T17:31:40.000Z,100088
2018-06-08T17:33:40.000Z,100087
2018-06-08T17:34:40.000Z,100083
2018-06-08T17:35:40.000Z,100088
2018-06-08T17:37:40.000Z,100089
2018-06-08T17:39:40.000Z,100089
2018-06-08T17:41:40.000Z,100095
2018-06-08T17:43:40.000Z,100096
2018-06-08T17:45:40.000Z,100097
2018-06-08T17:47:40.000Z,100094
2018-06-08T17:48:40.000Z,100101
2018-06-08T17:50:40.000Z,100097
2018-06-08T17:51:40.000Z,100097
2018-06-08T17:53:40.000Z,100099
2018-06-08T17:55:40.000Z,100096
2018-06-08T17:57:10.000Z,100104
2018-06-08T17:58:40.000Z,100100
2018-06-08T17:59:40.000Z,100096
2018-06-08T18:01:40.000Z,100098
2018-06-08T18:03:40.000Z,100096
2018-06-08T18:04:40.000Z,100104
2018-06-08T18:05:40.000Z,100106
2018-06-08T18:07:40.000Z,100104
2018-06-08T18:09:40.000Z,100106
2018-06-08T18:11:40.000Z,100099
2018-06-08T18:12:40.000Z,100103
2018-06-08T18:14:40.000Z,100100
2018-06-08T18:16:40.000Z,100104
2018-06-08T18:17:40.000Z,100106
2018-06-08T18:18:40.000Z,100107
2018-06-08T18:20:40.000Z,100110
2018-06-08T18:22:25.000Z,100106
2018-06-08T18:23:40.000Z,100109
2018-06-08T18:25:40.000Z,100109
2018-06-08T18:27:25.000Z,100111
2018-06-08T18:28:40.000Z,100115
2018-06-08T18:30:40.000Z,100110
2018-06-08T18:32:40.000Z,100106
2018-06-08T18:33:40.000Z,100106
2018-06-08T18:35:10.000Z,100104
2018-06-08T18:36:40.000Z,100103
2018-06-08T18:38:40.000Z,100109
2018-06-08T18:39:40.000Z,100111
2018-06-08T18:41:40.000Z,100106
2018-06-08T18:42:40.000Z,100109
2018-06-08T18:44:40.000Z,100113
2018-06-08T18:45:40.000Z,100112
2018-06-08T18:47:40.000Z,100108
2018-06-08T18:49:40.000Z,100114
2018-06-08T18:51:40.000Z,100109
2018-06-08T18:52:40.000Z,100111
2018-06-08T18:54:40.000Z,100108
2018-06-08T18:56:40.000Z,100100
2018-06-08T18:57:40.000Z,100102
2018-06-08T18:59:40.000Z,100095
2018-06-08T19:00:40.000Z,100099
2018-06-08T19:02:25.000Z,100095
2018-06-08T19:03:40.000Z,100096
2018-06-08T19:05:40.000Z,100102
2018-06-08T19:07:40.000Z,100096
2018-06-08T19:08:40.000Z,100102
2018-06-08T19:10:40.000Z,100099
2018-06-08T19:11:40.000Z,100089
2018-06-08T19:13:40.000Z,100091
2018-06-08T19:15:40.000Z,100084
2018-06-08T19:16:40.000Z,100085
2018-06-08T19:18:40.000Z,100093
2018-06-08T19:20:40.000Z,100089
2018-06-08T19:21:40.000Z,100090
2018-06-08T19:23:10.000Z,100082
2018-06-08T19:24:40.000Z,100083
2018-06-08T19:26:40.000Z,100078
2018-06-08T19:28:40.000Z,100079
2018-06-08T19:30:40.000Z,100083
2018-06-08T19:32:40.000Z,100086
2018-06-08T19:34:40.000Z,100081
2018-06-08T19:36:25.000Z,100080
2018-06-08T19:37:40.000Z,100075
2018-06-08T19:38:40.000Z,100074
2018-06-08T19:40:25.000Z,100079
2018-06-08T19:41:40.000Z,100085
2018-06-08T19:43:40.000Z,100096
2018-06-08T19:45:40.000Z,100095
2018-06-08T19:46:40.000Z,100092
2018-06-08T19:47:40.000Z,100093
2018-06-08T19:49:40.000Z,100088
2018-06-08T19:51:40.000Z,100090
2018-06-08T19:53:40.000Z,100091
2018-06-08T19:55:40.000Z,100097
2018-06-08T19:56:40.000Z,100097
2018-06-08T19:58:40.000Z,100101
2018-06-08T19:59:40.000Z,100107
2018-06-08T20:01:40.000Z,100113
2018-06-08T20:02:40.000Z,100114
2018-06-08T20:04:25.000Z,100123
2018-06-08T20:05:40.000Z,100121
2018-06-08T20:07:40.000Z,100121
2018-06-08T20:08:40.000Z,100116
2018-06-08T20:10:40.000Z,100123
2018-06-08T20:12:40.000Z,100121
2018-06-08T20:14:40.000Z,100125
2018-06-08T20:16:40.000Z,100133
2018-06-08T20:18:40.000Z,100133
2018-06-08T20:20:40.000Z,100135
2018-06-08T20:21:40.000Z,100133
2018-06-08T20:22:40.000Z,100135
2018-06-08T20:23:40.000Z,100140
2018-06-08T20:25:40.000Z,100135
2018-06-08T20:27:40.000Z,100140
2018-06-08T20:28:40.000Z,100140
2018-06-08T20:30:40.000Z,100143
2018-06-08T20:32:40.000Z,100135
2018-06-08T20:34:40.000Z,100134
2018-06-08T20:36:40.000Z,100135
2018-06-08T20:38:40.000Z,100135
2018-06-08T20:39:40.000Z,100141
2018-06-08T20:40:40.000Z,100137
2018-06-08T20:41:40.000Z,100143
2018-06-08T20:43:40.000Z,100140
2018-06-08T20:45:40.000Z,100139
2018-06-08T20:47:40.000Z,100138
2018-06-08T20:49:40.000Z,100148
2018-06-08T20:51:25.000Z,100145
2018-06-08T20:52:40.000Z,100139
2018-06-08T20:54:40.000Z,100139
2018-06-08T20:55:40.000Z,100141
2018-06-08T20:57:40.000Z,100136
2018-06-08T20:58:40.000Z,100128
2018-06-08T21:00:40.000Z,100133
2018-06-08T21:02:40.000Z,100131
2018-06-08T21:04:25.000Z,100130
2018-06-08T21:05:40.000Z,100125
2018-06-08T21:07:25.000Z,100129
2018-06-08T21:08:40.000Z,100126
2018-06-08T21:10:25.000Z,100131
2018-06-08T21:11:40.000Z,100137
2018-06-08T21:13:40.000Z,100147